Aérodrome :
LOGIN :

S'inscrire | Disclaimer

   EN    FR    IT 

 










Légende :    VFR   VFR Marginal   IFR   IFR Intensif   IFR Très Intensif
Visi : 
Plafond : 
>= 8 km
>= 3000ft
5 à 8 km
1000 à 3000 ft
1500m à 5 km
500 à 1000 ft
800 à 1500m
200 à 500 ft
< 800m
< 200 ft
Symboles :   Orages  Brouillard  Fortes neiges  Fortes précipitations  Vent > 20 kt
SIGMETs :   Divers  Orages  Givrage  Turbulence  Onde Orograph.  Cendres Volcan.







- Altitude de l'aérodrome : 302 ft
- Code IATA : MAH


LEMH - Menorca

DERNIER METAR :
  • 211930Z 24008KT 210V270 9999 FEW025 15/10 Q1016

METARs EXPIRÉS :
  • 211900Z 24008KT 200V270 9999 FEW025 16/10 Q1015
  • 211830Z 25007KT 220V290 9999 FEW025 15/09 Q1015
  • 211800Z 26008KT 230V290 9999 FEW025 16/09 Q1015
  • 211730Z 26010KT 220V290 9999 FEW025 16/08 Q1015
  • 211700Z 26008KT 230V290 9999 FEW025 16/09 Q1014
  • 211630Z 26012KT 230V290 9999 FEW025 16/08 Q1014

TAF TAF LEMH
Valide du 21 à 15h jusqu'au 22 à 15h UTC


211400Z 2115/2215 24012KT 9999 FEW020 TX18/2212Z TN12/2205Z
PROB40
TEMPO 2123/2211 SHRA FEW020TCU BKN025
PROB30
TEMPO 2200/2209 2000 TSRA SCT020CB
BECMG 2202/2204 22006KT
BECMG 2208/2210 21010KT
Pas de NOTAMs connus pour ce terrain.



MET'MAP, la Météo Aéronautique d'un coup d'oeil ! - Copyright ORBIFLY Décembre 2007 - Disclaimer

ORBIFLY MET'MAP TEAM :

Programmation & Développement : Alexandra Zaïnal
Conception & Développement : Baudouin d'Aumeries
Co-Programmation & Développement : Marc-Olivier Méhu
Soutien technique & logistique : Manuel Goepfert

Contact : metmap@orbifly.com




SOURCES & CREDITS :

   NOAA